Time;durP1;ratioP1;P1;durP2;ratioP2;P2;SDS_P1;SDS_P2;PMS_P1;PMS_P2;Temp;Humidity;BMP_temperature;BMP_pressure;BME280_temperature;BME280_humidity;BME280_pressure;Samples;Min_cycle;Max_cycle;Signal;HPM_P1;HPM_P2
2022/02/13 00:02:05;;;;;;;;;18.00;16.25;;;;;7.14;51.83;101753.22;5087616;27;46524;-75
2022/02/13 00:04:30;;;;;;;;;17.50;13.75;;;;;7.19;51.34;101759.56;5087413;27;45286;-75
2022/02/13 00:06:56;;;;;;;;;19.75;18.50;;;;;7.19;51.64;101749.97;5079543;27;45261;-74
2022/02/13 00:09:21;;;;;;;;;24.00;16.00;;;;;7.21;51.43;101757.91;5085176;27;56570;-74
2022/02/13 00:11:46;;;;;;;;;23.50;17.25;;;;;7.16;51.60;101741.97;5087278;27;46451;-74
2022/02/13 00:14:12;;;;;;;;;26.75;20.50;;;;;7.21;51.40;101742.16;5079202;27;45214;-74
2022/02/13 00:16:37;;;;;;;;;25.50;20.50;;;;;7.20;51.50;101736.00;5090943;27;55424;-75
2022/02/13 00:19:02;;;;;;;;;20.50;19.00;;;;;7.18;51.62;101732.41;5090061;27;53040;-74
2022/02/13 00:21:31;;;;;;;;;25.50;22.00;;;;;7.17;51.64;101728.00;5088461;27;46637;-74
2022/02/13 00:23:58;;;;;;;;;24.00;19.00;;;;;7.14;51.87;101721.72;5084367;27;45535;-75
2022/02/13 00:26:23;;;;;;;;;30.00;23.75;;;;;7.14;51.71;101721.72;5079809;27;45285;-75
2022/02/13 00:28:48;;;;;;;;;27.75;22.25;;;;;7.14;51.77;101722.63;5086352;27;54174;-74
2022/02/13 00:31:16;;;;;;;;;23.75;21.75;;;;;7.15;51.88;101723.53;5086949;27;46172;-75
2022/02/13 00:33:41;;;;;;;;;27.00;21.50;;;;;7.13;51.76;101719.94;5079788;27;45421;-74
2022/02/13 00:36:07;;;;;;;;;28.50;22.00;;;;;7.11;51.74;101709.38;5084478;27;52226;-74
2022/02/13 00:38:32;;;;;;;;;28.00;22.25;;;;;7.08;51.74;101706.59;5081688;27;53511;-75
2022/02/13 00:40:58;;;;;;;;;24.50;20.50;;;;;7.06;51.93;101697.78;5089421;27;45733;-75
2022/02/13 00:43:23;;;;;;;;;25.25;19.25;;;;;7.05;51.77;101696.00;5097353;27;63257;-75
2022/02/13 00:45:48;;;;;;;;;24.75;20.75;;;;;7.03;51.78;101693.31;5097592;27;53191;-76
2022/02/13 00:48:14;;;;;;;;;20.00;20.00;;;;;7.01;51.92;101683.59;5098498;27;45277;-76
2022/02/13 00:50:39;;;;;;;;;24.00;20.75;;;;;7.00;51.81;101674.81;5097967;27;46640;-75
2022/02/13 00:53:06;;;;;;;;;24.50;19.00;;;;;7.02;51.81;101680.13;5094710;27;45508;-74
2022/02/13 00:55:31;;;;;;;;;21.75;18.00;;;;;6.99;51.85;101675.66;5086490;27;45437;-74
2022/02/13 00:57:57;;;;;;;;;16.75;13.50;;;;;7.00;51.98;101680.06;5079115;27;45468;-75
2022/02/13 01:00:23;;;;;;;;;19.25;19.25;;;;;7.00;51.91;101672.19;5079455;27;47847;-74
2022/02/13 01:02:49;;;;;;;;;19.25;15.00;;;;;7.01;51.81;101667.81;5086291;27;45323;-75
2022/02/13 01:05:22;;;;;;;;;20.75;17.00;;;;;7.01;51.82;101673.09;5078594;27;45356;-74
2022/02/13 01:07:47;;;;;;;;;16.25;14.00;;;;;7.00;51.78;101671.28;5086482;27;45524;-74
2022/02/13 01:10:13;;;;;;;;;24.25;18.00;;;;;6.98;51.90;101663.38;5090181;27;47225;-75
2022/02/13 01:12:38;;;;;;;;;19.75;16.00;;;;;6.96;52.02;101662.41;5094046;27;45257;-75
2022/02/13 01:15:04;;;;;;;;;22.75;19.00;;;;;6.98;52.05;101658.13;5099020;27;54576;-74
2022/02/13 01:17:34;;;;;;;;;21.50;18.50;;;;;6.99;51.68;101662.53;5085084;27;45286;-75
2022/02/13 01:20:02;;;;;;;;;19.00;16.75;;;;;6.96;51.81;101657.16;5078397;27;46660;-74
2022/02/13 01:22:28;;;;;;;;;21.25;18.75;;;;;6.94;52.16;101656.19;5092766;27;45549;-74
2022/02/13 01:24:54;;;;;;;;;23.75;18.25;;;;;6.97;51.99;101651.06;5097048;27;55485;-74
2022/02/13 01:27:19;;;;;;;;;19.00;18.25;;;;;6.96;51.94;101640.50;5078105;27;45308;-75
2022/02/13 01:29:44;;;;;;;;;19.00;17.50;;;;;6.95;51.79;101639.59;5093544;27;50455;-74
2022/02/13 01:32:10;;;;;;;;;18.75;16.75;;;;;6.92;51.99;101633.34;5077077;27;45242;-75
2022/02/13 01:34:35;;;;;;;;;18.00;14.25;;;;;6.95;51.90;101641.34;5095892;27;46022;-75
2022/02/13 01:37:04;;;;;;;;;17.00;15.50;;;;;6.91;52.10;101621.94;5097669;27;51006;-74
2022/02/13 01:39:29;;;;;;;;;19.25;19.25;;;;;6.90;52.01;101629.78;5097253;27;46025;-74
2022/02/13 01:41:55;;;;;;;;;18.50;14.75;;;;;6.85;52.07;101618.19;5090165;27;45400;-75
2022/02/13 01:44:32;;;;;;;;;21.50;18.75;;;;;6.86;52.35;101636.63;5082379;27;45552;-75
2022/02/13 01:46:57;;;;;;;;;22.50;15.25;;;;;6.85;52.23;101639.19;5077728;27;45532;-74
2022/02/13 01:49:23;;;;;;;;;20.50;16.00;;;;;6.77;52.48;101634.56;5077442;27;46352;-74
2022/02/13 01:51:48;;;;;;;;;20.75;18.75;;;;;6.82;52.52;101648.75;5077518;27;52154;-75
2022/02/13 01:54:13;;;;;;;;;17.25;15.00;;;;;6.79;52.39;101638.13;5076460;27;45588;-74
2022/02/13 01:56:41;;;;;;;;;18.50;17.00;;;;;6.72;52.63;101630.84;5077845;27;45216;-74
2022/02/13 01:59:07;;;;;;;;;25.25;20.50;;;;;6.70;52.65;101640.38;5058675;28;58250;-75
2022/02/13 02:01:32;;;;;;;;;22.75;17.75;;;;;6.67;52.87;101639.38;5085132;27;60637;-74
2022/02/13 02:03:58;;;;;;;;;22.00;18.00;;;;;6.64;52.44;101634.00;5077772;27;45286;-75
2022/02/13 02:06:23;;;;;;;;;19.00;17.50;;;;;6.56;53.02;101620.59;5075970;27;45554;-75
2022/02/13 02:08:49;;;;;;;;;22.75;21.50;;;;;6.62;52.63;101631.31;5090627;27;62040;-75
2022/02/13 02:11:16;;;;;;;;;26.00;17.25;;;;;6.60;52.98;101617.22;5077018;27;58175;-74
2022/02/13 02:13:42;;;;;;;;;18.75;16.50;;;;;6.60;52.75;101619.84;5087320;27;45294;-74
2022/02/13 02:16:08;;;;;;;;;24.00;18.75;;;;;6.61;52.85;101607.66;5082618;27;56497;-76
2022/02/13 02:18:33;;;;;;;;;20.00;17.00;;;;;6.62;52.58;101601.56;5077252;27;46596;-74
2022/02/13 02:21:02;;;;;;;;;19.50;17.00;;;;;6.62;52.72;101610.31;5078797;27;45181;-74
2022/02/13 02:23:28;;;;;;;;;20.25;17.50;;;;;6.63;52.83;101601.63;5085364;27;45607;-75
2022/02/13 02:25:53;;;;;;;;;20.75;19.75;;;;;6.60;52.70;101588.34;5080382;27;45326;-75
2022/02/13 02:28:19;;;;;;;;;20.25;19.25;;;;;6.64;52.98;101589.38;5090860;27;64467;-74
2022/02/13 02:30:44;;;;;;;;;24.50;19.25;;;;;6.64;52.65;101576.25;5076517;27;55471;-76
2022/02/13 02:33:11;;;;;;;;;26.50;20.25;;;;;6.61;52.86;101566.56;5076473;27;54782;-75
2022/02/13 02:35:39;;;;;;;;;22.00;20.00;;;;;6.60;52.77;101574.34;5077215;27;45306;-74
2022/02/13 02:38:05;;;;;;;;;17.75;16.75;;;;;6.58;52.87;101571.69;5076822;27;47838;-74
2022/02/13 02:40:30;;;;;;;;;19.50;15.25;;;;;6.55;53.02;101567.22;5205394;22;60968;-75
2022/02/13 02:42:56;;;;;;;;;22.00;18.25;;;;;6.54;52.97;101565.41;5070579;27;55172;-74
2022/02/13 02:45:21;;;;;;;;;22.50;17.75;;;;;6.46;52.91;101552.84;5090529;27;49837;-75
2022/02/13 02:47:49;;;;;;;;;20.50;18.75;;;;;6.52;52.75;101558.31;5087424;27;57505;-75
2022/02/13 02:50:14;;;;;;;;;24.75;19.25;;;;;6.45;53.11;101554.56;5096684;27;45191;-76
2022/02/13 02:52:42;;;;;;;;;24.25;19.75;;;;;6.47;53.21;101552.88;5087217;27;45475;-73
2022/02/13 02:55:08;;;;;;;;;22.75;18.00;;;;;6.45;53.35;101554.56;5083275;27;58475;-75
2022/02/13 02:57:34;;;;;;;;;28.25;18.75;;;;;6.45;53.08;101549.31;5076674;27;47395;-74
2022/02/13 02:59:59;;;;;;;;;18.00;18.00;;;;;6.44;53.20;101547.50;5092871;27;45262;-74
2022/02/13 03:02:25;;;;;;;;;25.00;17.25;;;;;6.38;53.17;101543.75;5076907;27;45467;-75
2022/02/13 03:04:50;;;;;;;;;26.00;20.50;;;;;6.41;53.39;101547.41;5076838;27;45462;-75
2022/02/13 03:07:16;;;;;;;;;27.25;19.00;;;;;6.39;53.39;101540.28;5081146;27;63373;-75
2022/02/13 03:09:41;;;;;;;;;27.75;21.00;;;;;6.36;53.19;101538.47;5087877;27;60716;-75
2022/02/13 03:12:07;;;;;;;;;22.25;18.75;;;;;6.34;53.84;101533.97;5086235;27;53696;-74
2022/02/13 03:14:36;;;;;;;;;30.00;22.00;;;;;6.32;53.55;101533.91;5085524;27;45524;-75
2022/02/13 03:17:06;;;;;;;;;22.25;18.25;;;;;6.26;53.18;101510.97;5079856;27;47617;-74
2022/02/13 03:19:33;;;;;;;;;23.25;21.75;;;;;6.24;53.17;101509.16;5079898;27;45339;-75
2022/02/13 03:21:58;;;;;;;;;26.00;19.75;;;;;6.26;53.66;101510.97;5070268;27;45350;-75
2022/02/13 03:24:24;;;;;;;;;21.75;19.25;;;;;6.25;53.89;101508.31;5087230;27;53874;-74
2022/02/13 03:26:52;;;;;;;;;21.25;20.75;;;;;6.24;53.69;101507.41;5079726;27;46127;-74
2022/02/13 03:29:17;;;;;;;;;23.25;18.75;;;;;6.23;53.66;101504.72;5078979;27;61369;-74
2022/02/13 03:31:43;;;;;;;;;25.25;22.25;;;;;6.22;53.74;101500.31;5079335;27;56849;-75
2022/02/13 03:34:08;;;;;;;;;22.25;20.00;;;;;6.19;53.92;101503.72;5090072;27;45514;-75
2022/02/13 03:36:33;;;;;;;;;25.50;18.50;;;;;6.18;53.94;101503.63;5086866;27;60916;-75
2022/02/13 03:38:59;;;;;;;;;21.00;17.50;;;;;6.18;53.86;101501.00;5079917;27;45400;-75
2022/02/13 03:41:27;;;;;;;;;20.50;16.75;;;;;6.16;53.97;101498.34;5086495;27;57857;-75
2022/02/13 03:43:52;;;;;;;;;26.50;19.75;;;;;6.16;53.87;101500.97;5079966;27;45190;-74
2022/02/13 03:46:17;;;;;;;;;24.75;21.00;;;;;6.16;54.05;101494.81;5079482;27;45747;-74
2022/02/13 03:48:43;;;;;;;;;28.25;21.50;;;;;6.12;54.01;101485.94;5086845;27;57208;-75
2022/02/13 03:51:08;;;;;;;;;24.00;21.25;;;;;6.13;54.06;101479.88;5085467;27;56344;-74
2022/02/13 03:53:34;;;;;;;;;25.50;18.75;;;;;6.13;54.17;101484.22;5089139;27;45341;-75
2022/02/13 03:55:59;;;;;;;;;21.25;18.75;;;;;6.14;53.95;101480.78;5079104;27;54230;-75
2022/02/13 03:58:25;;;;;;;;;27.75;21.50;;;;;6.07;54.16;101469.13;5079308;27;45330;-75
2022/02/13 04:00:50;;;;;;;;;21.25;19.25;;;;;6.06;54.50;101472.59;5090434;27;45343;-74
2022/02/13 04:03:16;;;;;;;;;28.00;20.25;;;;;6.10;54.04;101473.63;5092975;27;45247;-75
2022/02/13 04:05:41;;;;;;;;;27.00;21.25;;;;;6.07;54.10;101479.59;5086397;27;47327;-74
2022/02/13 04:08:07;;;;;;;;;19.50;18.75;;;;;6.09;54.02;101477.06;5079603;27;45254;-75
2022/02/13 04:10:35;;;;;;;;;17.50;11.25;;;;;6.04;54.56;101463.78;5098092;27;45523;-75
2022/02/13 04:13:00;;;;;;;;;24.50;18.00;;;;;6.09;54.38;101475.34;5081847;27;45339;-75
2022/02/13 04:15:26;;;;;;;;;23.00;18.00;;;;;6.08;54.15;101470.94;5091936;27;45539;-74
2022/02/13 04:17:52;;;;;;;;;24.00;18.25;;;;;6.07;54.49;101463.00;5087401;27;45296;-75
2022/02/13 04:20:18;;;;;;;;;22.25;17.00;;;;;6.07;54.68;101463.88;5068680;28;45246;-74
2022/02/13 04:22:43;;;;;;;;;18.00;16.00;;;;;6.09;54.43;101462.22;5091128;27;45353;-74
2022/02/13 04:25:08;;;;;;;;;27.50;20.75;;;;;6.10;54.36;101448.28;5078868;27;62537;-74
2022/02/13 04:27:36;;;;;;;;;20.50;15.75;;;;;6.10;54.48;101450.91;5078503;27;60754;-75
2022/02/13 04:30:01;;;;;;;;;20.75;16.75;;;;;6.11;54.25;101450.06;5079214;27;45533;-75
2022/02/13 04:32:27;;;;;;;;;20.25;18.00;;;;;6.10;54.63;101442.16;5095087;27;45420;-75
2022/02/13 04:34:52;;;;;;;;;21.75;17.00;;;;;6.09;54.54;101450.84;5078086;27;63792;-75
2022/02/13 04:37:18;;;;;;;;;22.00;17.25;;;;;6.06;54.55;101455.97;5081995;27;54227;-75
2022/02/13 04:39:43;;;;;;;;;26.50;21.00;;;;;5.99;54.87;101439.09;5086113;27;57861;-74
2022/02/13 04:42:10;;;;;;;;;18.50;14.00;;;;;5.97;54.88;101438.16;5078770;27;45533;-75
2022/02/13 04:44:35;;;;;;;;;19.75;16.00;;;;;6.00;54.70;101430.41;5078740;27;46484;-74
2022/02/13 04:47:01;;;;;;;;;21.75;17.00;;;;;6.00;54.58;101430.41;5090213;27;45297;-75
2022/02/13 04:49:26;;;;;;;;;20.00;18.00;;;;;5.99;54.82;101432.13;5080271;27;46680;-75
2022/02/13 04:51:51;;;;;;;;;16.00;14.50;;;;;6.01;54.65;101424.31;5078629;27;47775;-74
2022/02/13 04:54:17;;;;;;;;;23.25;21.00;;;;;6.01;54.83;101424.31;5077837;27;45852;-75
2022/02/13 04:56:44;;;;;;;;;18.00;16.00;;;;;5.99;54.73;101421.66;5078225;27;45315;-75
2022/02/13 04:59:10;;;;;;;;;19.75;17.50;;;;;6.03;54.56;101414.81;5078240;27;45405;-75
2022/02/13 05:01:36;;;;;;;;;20.50;17.25;;;;;6.03;54.98;101405.22;5095462;27;45474;-74
2022/02/13 05:04:01;;;;;;;;;27.50;19.00;;;;;6.02;54.89;101403.44;5089280;27;45418;-75
2022/02/13 05:06:26;;;;;;;;;20.00;19.25;;;;;6.03;55.00;101401.72;5089949;27;59737;-74
2022/02/13 05:08:53;;;;;;;;;20.25;18.25;;;;;5.98;54.96;101392.78;5089078;27;55475;-75
2022/02/13 05:11:19;;;;;;;;;24.50;17.75;;;;;6.00;54.73;101397.22;5077280;27;45524;-74
2022/02/13 05:13:44;;;;;;;;;20.00;17.00;;;;;6.00;54.96;101394.59;5077606;27;64559;-74
2022/02/13 05:16:12;;;;;;;;;20.75;16.75;;;;;5.99;55.25;101397.19;5085363;27;61516;-74
2022/02/13 05:18:37;;;;;;;;;18.50;14.50;;;;;5.99;55.17;101392.81;5078343;27;45479;-74
2022/02/13 05:21:03;;;;;;;;;28.50;21.50;;;;;6.00;54.96;101391.97;5078362;27;54106;-76
2022/02/13 05:23:28;;;;;;;;;25.25;17.75;;;;;5.98;55.12;101383.19;5080174;27;47345;-75
2022/02/13 05:25:54;;;;;;;;;27.00;19.25;;;;;6.02;54.99;101378.97;5077435;27;55185;-75
2022/02/13 05:28:19;;;;;;;;;19.25;13.75;;;;;6.01;54.68;101367.53;5077422;27;56197;-75
2022/02/13 05:30:44;;;;;;;;;19.25;17.50;;;;;6.01;54.90;101367.53;5091884;27;56268;-74
2022/02/13 05:33:10;;;;;;;;;19.50;14.00;;;;;6.00;55.32;101365.78;5078999;27;46658;-74
2022/02/13 05:35:35;;;;;;;;;21.75;16.50;;;;;6.00;54.97;101364.88;5082619;27;45356;-74
2022/02/13 05:38:01;;;;;;;;;20.00;16.50;;;;;6.01;55.32;101358.78;5089701;27;46285;-74
2022/02/13 05:40:26;;;;;;;;;18.50;16.00;;;;;6.01;55.27;101351.81;5077509;27;49746;-74
2022/02/13 05:42:52;;;;;;;;;23.75;17.25;;;;;6.01;55.24;101362.31;5077374;27;60161;-75
2022/02/13 05:45:17;;;;;;;;;22.25;18.00;;;;;6.01;55.41;101366.66;5077230;27;57817;-75
2022/02/13 05:47:46;;;;;;;;;24.00;18.00;;;;;6.02;55.20;101365.84;5077832;27;45306;-74
2022/02/13 05:50:11;;;;;;;;;24.50;17.00;;;;;6.01;55.28;101353.56;5094716;27;45310;-75
2022/02/13 05:52:37;;;;;;;;;23.00;15.75;;;;;6.00;55.57;101341.28;5077671;27;45406;-74
2022/02/13 05:55:05;;;;;;;;;22.75;16.75;;;;;5.99;55.12;101340.41;5083841;27;45238;-75
2022/02/13 05:57:32;;;;;;;;;14.75;14.00;;;;;6.00;55.15;101342.19;5079040;27;46110;-74
2022/02/13 05:59:58;;;;;;;;;27.50;16.75;;;;;6.01;55.10;101337.81;5081274;27;45385;-74
2022/02/13 06:02:23;;;;;;;;;27.00;19.00;;;;;6.02;55.11;101344.88;5096066;27;64213;-75
2022/02/13 06:04:49;;;;;;;;;16.75;14.25;;;;;6.00;55.01;101342.19;5085136;27;58438;-74
2022/02/13 06:07:18;;;;;;;;;22.25;15.25;;;;;6.04;55.20;101338.84;5077192;27;54471;-75
2022/02/13 06:09:43;;;;;;;;;20.75;17.25;;;;;6.07;55.35;101340.66;5088890;27;45417;-75
2022/02/13 06:12:09;;;;;;;;;17.50;15.00;;;;;6.07;55.35;101348.53;5082696;27;61514;-75
2022/02/13 06:14:44;;;;;;;;;25.00;16.75;;;;;6.09;55.01;101344.25;5087356;27;45329;-74
2022/02/13 06:17:09;;;;;;;;;18.00;15.75;;;;;6.10;54.95;101345.16;5085179;27;55695;-75
2022/02/13 06:19:35;;;;;;;;;22.00;15.75;;;;;6.10;54.73;101340.78;5084950;27;45662;-74
2022/02/13 06:22:00;;;;;;;;;17.00;13.75;;;;;6.11;54.92;101337.34;5091849;27;65145;-76
2022/02/13 06:24:25;;;;;;;;;21.25;15.50;;;;;6.11;55.11;101331.19;5082368;27;45227;-75
2022/02/13 06:26:53;;;;;;;;;15.25;13.25;;;;;6.10;54.82;101346.03;5076516;27;49960;-75
2022/02/13 06:29:21;;;;;;;;;21.75;19.50;;;;;6.11;54.71;101342.56;5086387;27;45459;-75
2022/02/13 06:31:46;;;;;;;;;22.50;18.00;;;;;6.10;54.53;101345.16;5096365;27;46710;-74
2022/02/13 06:34:12;;;;;;;;;19.25;15.75;;;;;6.08;54.76;101338.97;5085364;27;45287;-75
2022/02/13 06:36:37;;;;;;;;;16.00;14.50;;;;;6.07;54.63;101345.03;5077161;27;60451;-74
2022/02/13 06:39:02;;;;;;;;;15.50;14.00;;;;;6.05;54.35;101347.59;5076575;27;53768;-75
2022/02/13 06:41:28;;;;;;;;;17.00;15.25;;;;;6.01;54.36;101335.19;5075010;27;61146;-75
2022/02/13 06:43:53;;;;;;;;;14.00;10.00;;;;;5.98;54.32;101330.75;5080194;27;46601;-75
2022/02/13 06:46:19;;;;;;;;;21.75;18.25;;;;;5.95;54.24;101327.13;5082853;27;52464;-76
2022/02/13 06:48:44;;;;;;;;;15.00;14.00;;;;;5.93;54.40;101313.06;5085334;27;45326;-75
2022/02/13 06:51:10;;;;;;;;;19.25;15.25;;;;;5.90;54.41;101311.19;5090307;27;62790;-75
2022/02/13 06:53:38;;;;;;;;;18.75;14.25;;;;;5.88;54.47;101311.97;5095525;27;45539;-74
2022/02/13 06:56:04;;;;;;;;;18.00;15.75;;;;;5.88;54.60;101301.50;5102271;27;45550;-75
2022/02/13 06:58:29;;;;;;;;;21.50;17.00;;;;;5.84;54.72;101300.47;5103884;27;45646;-74
2022/02/13 07:00:56;;;;;;;;;14.00;13.75;;;;;5.85;54.39;101299.63;5100445;27;46606;-75
2022/02/13 07:03:21;;;;;;;;;16.75;16.50;;;;;5.84;54.68;101296.97;5101485;27;45207;-75
2022/02/13 07:05:47;;;;;;;;;15.50;12.75;;;;;5.82;54.73;101283.81;5095585;27;45502;-76
2022/02/13 07:08:15;;;;;;;;;20.00;13.25;;;;;5.82;54.59;101281.19;5098988;27;53942;-75
2022/02/13 07:10:40;;;;;;;;;18.00;14.75;;;;;5.83;55.07;101282.97;5106804;27;47265;-74
2022/02/13 07:13:08;;;;;;;;;18.00;14.75;;;;;5.85;54.81;101283.00;5100097;27;45198;-76
2022/02/13 07:15:35;;;;;;;;;22.50;13.00;;;;;5.83;54.80;101279.47;5097965;27;45623;-76
2022/02/13 07:18:01;;;;;;;;;25.50;15.00;;;;;5.79;54.39;101267.97;5100272;27;45577;-76
2022/02/13 07:20:26;;;;;;;;;21.50;16.75;;;;;5.85;54.61;101285.63;5099312;27;46671;-76
2022/02/13 07:22:54;;;;;;;;;15.00;13.50;;;;;5.85;54.48;101276.03;5096627;27;62010;-76
2022/02/13 07:25:19;;;;;;;;;19.25;14.50;;;;;5.87;54.61;101284.88;5100016;27;45361;-76
2022/02/13 07:27:45;;;;;;;;;20.25;13.75;;;;;5.86;54.63;101275.25;5098958;27;51160;-76
2022/02/13 07:30:13;;;;;;;;;13.75;13.25;;;;;5.89;54.60;101279.69;5098985;27;64066;-76
2022/02/13 07:32:40;;;;;;;;;19.50;16.75;;;;;5.88;54.78;101289.28;5099470;27;45455;-76
2022/02/13 07:35:08;;;;;;;;;18.75;16.00;;;;;5.90;54.26;101286.69;5099753;27;45468;-76
2022/02/13 07:37:41;;;;;;;;;21.75;14.25;;;;;5.87;54.08;101274.41;5099595;27;45367;-75
2022/02/13 07:40:10;;;;;;;;;18.00;14.75;;;;;5.87;54.04;101274.41;5099354;27;46767;-76
2022/02/13 07:42:38;;;;;;;;;19.25;15.00;;;;;5.89;54.13;101271.81;5099128;27;45435;-75
2022/02/13 07:45:04;;;;;;;;;19.75;12.50;;;;;5.91;54.09;101278.00;5099224;27;45410;-72
2022/02/13 07:47:30;;;;;;;;;21.25;15.25;;;;;5.91;54.10;101264.91;5099360;27;45283;-75
2022/02/13 07:49:56;;;;;;;;;18.75;14.25;;;;;5.93;54.15;101266.78;5098961;27;45524;-74
2022/02/13 07:52:21;;;;;;;;;14.50;13.00;;;;;5.89;54.30;101249.13;5098126;27;45503;-81
2022/02/13 07:54:46;;;;;;;;;19.25;13.25;;;;;5.86;53.71;101254.28;5093789;27;52853;-81
2022/02/13 07:57:12;;;;;;;;;18.75;15.25;;;;;5.86;54.01;101250.72;5097689;27;47245;-81
2022/02/13 07:59:44;;;;;;;;;15.75;13.00;;;;;5.85;53.72;101252.47;5098830;27;48133;-80
2022/02/13 08:02:09;;;;;;;;;14.50;10.00;;;;;5.83;53.46;101242.78;5100132;27;45462;-79
2022/02/13 08:04:36;;;;;;;;;19.50;13.00;;;;;5.70;53.59;101233.53;5079454;27;45439;-82
2022/02/13 08:07:02;;;;;;;;;15.00;15.00;;;;;5.56;54.12;101237.41;5065311;27;45665;-82
2022/02/13 08:09:27;;;;;;;;;13.50;12.50;;;;;5.48;54.37;101229.25;5089049;27;46055;-82
2022/02/13 08:11:53;;;;;;;;;12.50;11.75;;;;;5.36;54.91;101213.97;5098208;27;61830;-81
2022/02/13 08:14:18;;;;;;;;;20.75;16.00;;;;;5.34;55.57;101217.38;5098814;27;46088;-83
2022/02/13 08:16:43;;;;;;;;;19.50;15.50;;;;;5.24;55.53;101209.16;5095621;27;46875;-82
2022/02/13 08:19:09;;;;;;;;;16.25;13.50;;;;;5.24;55.30;101203.91;5077986;27;47754;-81
2022/02/13 08:21:34;;;;;;;;;13.75;13.75;;;;;5.33;55.43;101210.34;5111939;27;45381;-77
2022/02/13 08:24:00;;;;;;;;;19.50;17.00;;;;;5.42;55.48;101211.56;5096468;27;45555;-74
2022/02/13 08:26:25;;;;;;;;;22.25;16.50;;;;;5.52;55.34;101205.84;5098228;27;52650;-75
2022/02/13 08:28:51;;;;;;;;;15.75;12.50;;;;;5.64;55.62;101209.75;5098680;27;45472;-75
2022/02/13 08:31:17;;;;;;;;;17.50;15.25;;;;;5.73;55.59;101210.09;5098447;27;45385;-74
2022/02/13 08:33:44;;;;;;;;;17.00;17.00;;;;;5.84;55.58;101202.63;5098500;27;50068;-75
2022/02/13 08:36:10;;;;;;;;;18.00;14.50;;;;;5.92;55.48;101198.59;5098896;27;45437;-75
2022/02/13 08:38:35;;;;;;;;;17.75;14.25;;;;;5.99;55.46;101190.09;5096744;27;62844;-74
2022/02/13 08:41:00;;;;;;;;;21.75;17.00;;;;;6.07;55.48;101187.75;5097971;27;53874;-74
2022/02/13 08:43:26;;;;;;;;;17.00;13.75;;;;;6.14;55.32;101182.78;5098077;27;45747;-75
2022/02/13 08:45:55;;;;;;;;;20.00;16.00;;;;;6.20;55.66;101175.13;5098061;27;54117;-75
2022/02/13 08:48:21;;;;;;;;;20.00;13.75;;;;;6.24;55.65;101171.78;5097177;27;46808;-76
2022/02/13 08:50:46;;;;;;;;;18.50;15.00;;;;;6.29;55.69;101174.56;5092754;27;45745;-75
2022/02/13 08:53:17;;;;;;;;;17.75;14.75;;;;;6.37;55.65;101162.56;5078969;27;45331;-77
2022/02/13 08:55:55;;;;;;;;;14.25;14.25;;;;;6.42;55.96;101163.63;5092220;27;45478;-76
2022/02/13 08:58:20;;;;;;;;;15.75;14.25;;;;;6.46;56.00;101165.50;5096554;27;46476;-75
2022/02/13 09:00:48;;;;;;;;;18.00;14.00;;;;;6.51;55.81;101158.69;5091186;27;45969;-76
2022/02/13 09:03:13;;;;;;;;;24.50;17.25;;;;;6.56;55.99;101161.47;5090821;27;51507;-77
2022/02/13 09:05:46;;;;;;;;;18.75;18.25;;;;;6.59;56.28;101160.66;5093075;27;46234;-78
2022/02/13 09:08:11;;;;;;;;;21.00;19.00;;;;;6.63;56.21;101150.31;5094819;27;47935;-75
2022/02/13 09:10:56;;;;;;;;;18.00;15.50;;;;;6.68;56.15;101161.84;5092972;27;54056;-74
2022/02/13 09:13:24;;;;;;;;;19.00;18.75;;;;;6.70;56.24;101140.88;5088152;27;45600;-74
2022/02/13 09:15:49;;;;;;;;;24.00;15.00;;;;;6.77;56.16;101146.41;5087344;27;45587;-75
2022/02/13 09:18:25;;;;;;;;;21.75;16.75;;;;;6.77;56.37;101135.91;5092634;27;46365;-75
2022/02/13 09:20:50;;;;;;;;;18.25;17.75;;;;;6.88;56.40;101144.09;5096429;27;45444;-73
2022/02/13 09:23:21;;;;;;;;;19.75;18.00;;;;;6.95;56.68;101132.06;5093989;27;45525;-73
2022/02/13 09:25:49;;;;;;;;;18.00;16.25;;;;;7.02;56.57;101115.63;5096354;27;45535;-74
2022/02/13 09:28:16;;;;;;;;;28.25;20.25;;;;;7.08;56.64;101106.22;5095059;27;47656;-73
2022/02/13 09:30:46;;;;;;;;;16.50;13.25;;;;;7.17;56.69;101092.44;5089942;27;45445;-73
2022/02/13 09:33:11;;;;;;;;;22.25;18.25;;;;;7.24;56.58;101086.50;5088023;27;45709;-75
2022/02/13 09:35:39;;;;;;;;;16.50;16.25;;;;;7.35;56.57;101077.22;5088968;27;45421;-73
2022/02/13 09:38:09;;;;;;;;;19.75;15.00;;;;;7.43;56.66;101066.91;5096843;27;47125;-73
2022/02/13 09:40:36;;;;;;;;;16.25;16.25;;;;;7.55;56.81;101055.84;5095208;27;45381;-73
2022/02/13 09:43:04;;;;;;;;;21.75;19.50;;;;;7.65;56.91;101049.09;5094995;27;45557;-73
2022/02/13 09:45:32;;;;;;;;;22.00;18.50;;;;;7.76;56.78;101037.13;5091207;27;45297;-73
2022/02/13 09:47:59;;;;;;;;;20.00;18.00;;;;;7.82;56.67;101032.03;5095061;27;47155;-75
2022/02/13 09:50:24;;;;;;;;;22.00;16.00;;;;;7.94;56.88;101028.84;5095615;27;45380;-75
2022/02/13 09:52:54;;;;;;;;;15.50;15.50;;;;;8.00;56.70;101014.09;5096552;27;56507;-74
2022/02/13 09:55:20;;;;;;;;;19.00;15.75;;;;;8.01;56.34;101007.09;5081280;27;45548;-74
2022/02/13 09:58:03;;;;;;;;;15.50;11.50;;;;;8.04;57.43;101004.50;5083955;27;46547;-74
2022/02/13 10:00:47;;;;;;;;;21.00;18.75;;;;;8.08;57.16;100996.75;5095630;27;45339;-74
2022/02/13 10:03:20;;;;;;;;;21.25;17.50;;;;;8.13;56.97;100999.47;5077689;27;45342;-74
2022/02/13 10:05:48;;;;;;;;;20.75;19.75;;;;;8.14;57.61;100977.59;5093144;27;45431;-74
2022/02/13 10:08:37;;;;;;;;;23.25;19.75;;;;;8.23;57.45;100983.06;5081078;27;46679;-74
2022/02/13 10:11:17;;;;;;;;;19.75;16.25;;;;;8.27;57.49;100979.66;5093014;27;45510;-74
2022/02/13 10:13:46;;;;;;;;;17.25;14.25;;;;;8.34;57.30;100971.03;5084154;27;45376;-78
2022/02/13 10:16:22;;;;;;;;;22.50;18.25;;;;;8.43;57.20;100969.50;5088987;27;45507;-77
2022/02/13 10:18:51;;;;;;;;;22.75;16.75;;;;;8.49;57.35;100959.13;5089357;27;45501;-78
2022/02/13 10:21:32;;;;;;;;;18.50;16.50;;;;;8.56;57.62;100953.13;5086588;27;45519;-76
2022/02/13 10:24:16;;;;;;;;;23.00;18.75;;;;;8.64;57.42;100946.28;5081063;27;45317;-76
2022/02/13 10:26:57;;;;;;;;;21.25;17.00;;;;;8.70;57.62;100949.03;5082766;27;45614;-79
2022/02/13 10:29:30;;;;;;;;;20.50;18.25;;;;;8.78;57.40;100952.69;5086618;27;45348;-76
2022/02/13 10:32:17;;;;;;;;;22.25;19.75;;;;;8.85;57.34;100956.34;5093914;27;45194;-76
2022/02/13 10:35:18;;;;;;;;;22.25;18.50;;;;;8.89;57.66;100955.53;5086894;27;45429;-76
2022/02/13 10:37:47;;;;;;;;;24.75;21.50;;;;;8.91;57.44;100951.22;5015533;28;52328;-75
2022/02/13 10:40:17;;;;;;;;;19.50;17.50;;;;;8.91;57.57;100945.94;5074397;27;46526;-75
2022/02/13 10:42:43;;;;;;;;;19.25;17.00;;;;;8.90;57.63;100938.91;5087190;27;45560;-76
2022/02/13 10:45:22;;;;;;;;;22.75;18.50;;;;;8.88;58.16;100938.84;5088449;27;45948;-76
2022/02/13 10:47:48;;;;;;;;;22.00;17.50;;;;;8.93;57.77;100925.78;5080949;27;45504;-78
2022/02/13 10:50:14;;;;;;;;;21.00;20.75;;;;;8.96;58.51;100931.13;5095113;27;48488;-75
2022/02/13 10:52:40;;;;;;;;;17.50;16.50;;;;;9.00;58.05;100918.88;5090797;27;45356;-75
2022/02/13 10:55:05;;;;;;;;;29.00;19.75;;;;;9.06;58.22;100926.91;5070693;27;56236;-75
2022/02/13 10:57:31;;;;;;;;;20.25;16.00;;;;;9.11;58.29;100915.59;5085006;27;45578;-75
2022/02/13 10:59:56;;;;;;;;;16.75;15.50;;;;;9.15;58.75;100901.59;5068534;27;48886;-78
2022/02/13 11:02:24;;;;;;;;;17.75;14.75;;;;;9.20;58.74;100891.16;5094537;27;60450;-75
2022/02/13 11:04:51;;;;;;;;;28.00;20.50;;;;;9.25;58.82;100885.97;5086853;27;45553;-75
2022/02/13 11:07:16;;;;;;;;;21.50;20.00;;;;;9.34;59.16;100884.38;5090353;27;45690;-74
2022/02/13 11:09:42;;;;;;;;;24.50;19.25;;;;;9.42;59.16;100893.28;5089818;27;63584;-75
2022/02/13 11:12:07;;;;;;;;;20.00;17.25;;;;;9.53;58.30;100892.56;5084362;27;45308;-74
2022/02/13 11:14:37;;;;;;;;;26.75;19.00;;;;;9.64;58.80;100889.28;5100533;27;45501;-75
2022/02/13 11:17:03;;;;;;;;;20.00;16.00;;;;;9.76;58.38;100872.75;5085470;27;45457;-76